sensor_id;sensor_type;location;lat;lon;timestamp;P1;durP1;ratioP1;P2;durP2;ratioP2
13220;SDS011;6675;48.128;11.478;2024-03-23T00:55:11;5.38;;;3.60;;
13220;SDS011;6675;48.128;11.478;2024-03-23T00:57:37;4.85;;;3.30;;
13220;SDS011;6675;48.128;11.478;2024-03-23T01:00:03;6.05;;;3.70;;
13220;SDS011;6675;48.128;11.478;2024-03-23T01:02:31;6.72;;;3.55;;
13220;SDS011;6675;48.128;11.478;2024-03-23T01:04:57;5.07;;;3.13;;
13220;SDS011;6675;48.128;11.478;2024-03-23T01:07:22;5.63;;;3.53;;
13220;SDS011;6675;48.128;11.478;2024-03-23T01:09:48;5.75;;;3.65;;
13220;SDS011;6675;48.128;11.478;2024-03-23T01:12:14;6.13;;;3.58;;
13220;SDS011;6675;48.128;11.478;2024-03-23T01:14:39;6.70;;;3.72;;
13220;SDS011;6675;48.128;11.478;2024-03-23T01:17:05;6.03;;;4.00;;
13220;SDS011;6675;48.128;11.478;2024-03-23T01:19:30;6.10;;;3.65;;
13220;SDS011;6675;48.128;11.478;2024-03-23T01:21:56;7.47;;;3.72;;
13220;SDS011;6675;48.128;11.478;2024-03-23T01:24:21;5.90;;;3.38;;
13220;SDS011;6675;48.128;11.478;2024-03-23T01:26:47;5.93;;;3.30;;
13220;SDS011;6675;48.128;11.478;2024-03-23T01:29:12;5.18;;;3.30;;
13220;SDS011;6675;48.128;11.478;2024-03-23T01:31:38;5.40;;;3.10;;
13220;SDS011;6675;48.128;11.478;2024-03-23T01:34:03;4.60;;;3.30;;
13220;SDS011;6675;48.128;11.478;2024-03-23T01:36:29;5.93;;;3.28;;
13220;SDS011;6675;48.128;11.478;2024-03-23T01:38:54;5.90;;;3.40;;
13220;SDS011;6675;48.128;11.478;2024-03-23T01:41:20;4.50;;;2.58;;
13220;SDS011;6675;48.128;11.478;2024-03-23T01:43:46;5.85;;;3.38;;
13220;SDS011;6675;48.128;11.478;2024-03-23T01:46:12;5.32;;;3.35;;
13220;SDS011;6675;48.128;11.478;2024-03-23T01:48:38;4.72;;;3.00;;
13220;SDS011;6675;48.128;11.478;2024-03-23T01:51:03;5.68;;;3.20;;
13220;SDS011;6675;48.128;11.478;2024-03-23T01:53:30;4.72;;;2.83;;
13220;SDS011;6675;48.128;11.478;2024-03-23T01:55:56;4.20;;;2.85;;
13220;SDS011;6675;48.128;11.478;2024-03-23T01:58:22;4.97;;;3.15;;
13220;SDS011;6675;48.128;11.478;2024-03-23T02:00:47;5.47;;;2.90;;
13220;SDS011;6675;48.128;11.478;2024-03-23T02:03:25;5.47;;;3.08;;
13220;SDS011;6675;48.128;11.478;2024-03-23T02:05:55;5.60;;;2.92;;
13220;SDS011;6675;48.128;11.478;2024-03-23T02:08:21;5.03;;;2.90;;
13220;SDS011;6675;48.128;11.478;2024-03-23T02:10:48;4.55;;;3.08;;
13220;SDS011;6675;48.128;11.478;2024-03-23T02:13:15;5.80;;;3.10;;
13220;SDS011;6675;48.128;11.478;2024-03-23T02:15:43;4.53;;;3.03;;
13220;SDS011;6675;48.128;11.478;2024-03-23T02:18:09;4.53;;;3.17;;
13220;SDS011;6675;48.128;11.478;2024-03-23T02:20:35;5.35;;;2.90;;
13220;SDS011;6675;48.128;11.478;2024-03-23T02:23:02;5.35;;;2.70;;
13220;SDS011;6675;48.128;11.478;2024-03-23T02:25:28;5.70;;;2.95;;
13220;SDS011;6675;48.128;11.478;2024-03-23T02:27:53;5.90;;;3.30;;
13220;SDS011;6675;48.128;11.478;2024-03-23T02:30:20;5.03;;;3.35;;
13220;SDS011;6675;48.128;11.478;2024-03-23T02:32:46;5.38;;;3.28;;
13220;SDS011;6675;48.128;11.478;2024-03-23T02:35:11;5.28;;;3.08;;
13220;SDS011;6675;48.128;11.478;2024-03-23T02:37:37;5.40;;;3.17;;
13220;SDS011;6675;48.128;11.478;2024-03-23T02:40:03;5.05;;;3.03;;
13220;SDS011;6675;48.128;11.478;2024-03-23T02:42:28;5.90;;;3.25;;
13220;SDS011;6675;48.128;11.478;2024-03-23T02:44:54;6.28;;;3.38;;
13220;SDS011;6675;48.128;11.478;2024-03-23T02:47:20;4.35;;;2.90;;
13220;SDS011;6675;48.128;11.478;2024-03-23T02:49:45;5.15;;;3.25;;
13220;SDS011;6675;48.128;11.478;2024-03-23T02:52:11;5.95;;;3.25;;
13220;SDS011;6675;48.128;11.478;2024-03-23T02:54:36;5.80;;;3.00;;
13220;SDS011;6675;48.128;11.478;2024-03-23T02:57:02;4.93;;;3.10;;
13220;SDS011;6675;48.128;11.478;2024-03-23T02:59:27;7.03;;;3.42;;
13220;SDS011;6675;48.128;11.478;2024-03-23T03:01:53;6.32;;;3.22;;
13220;SDS011;6675;48.128;11.478;2024-03-23T03:04:18;5.40;;;3.03;;
13220;SDS011;6675;48.128;11.478;2024-03-23T03:06:47;5.75;;;3.30;;
13220;SDS011;6675;48.128;11.478;2024-03-23T03:09:13;5.32;;;3.15;;
13220;SDS011;6675;48.128;11.478;2024-03-23T03:11:38;5.28;;;3.03;;
13220;SDS011;6675;48.128;11.478;2024-03-23T03:14:04;6.18;;;3.50;;
13220;SDS011;6675;48.128;11.478;2024-03-23T03:16:32;4.50;;;2.80;;
13220;SDS011;6675;48.128;11.478;2024-03-23T03:18:58;5.03;;;3.25;;
13220;SDS011;6675;48.128;11.478;2024-03-23T03:21:23;6.13;;;3.22;;
13220;SDS011;6675;48.128;11.478;2024-03-23T03:23:49;5.35;;;2.97;;
13220;SDS011;6675;48.128;11.478;2024-03-23T03:26:15;5.95;;;3.05;;
13220;SDS011;6675;48.128;11.478;2024-03-23T03:28:42;5.82;;;3.00;;
13220;SDS011;6675;48.128;11.478;2024-03-23T03:31:08;4.70;;;2.65;;
13220;SDS011;6675;48.128;11.478;2024-03-23T03:33:33;5.97;;;3.20;;
13220;SDS011;6675;48.128;11.478;2024-03-23T03:35:59;5.68;;;2.90;;
13220;SDS011;6675;48.128;11.478;2024-03-23T03:38:24;4.40;;;2.90;;
13220;SDS011;6675;48.128;11.478;2024-03-23T03:40:50;4.00;;;2.55;;
13220;SDS011;6675;48.128;11.478;2024-03-23T03:43:15;6.95;;;3.22;;
13220;SDS011;6675;48.128;11.478;2024-03-23T03:45:41;4.80;;;3.08;;
13220;SDS011;6675;48.128;11.478;2024-03-23T03:48:07;5.65;;;3.35;;
13220;SDS011;6675;48.128;11.478;2024-03-23T03:50:32;5.25;;;3.03;;
13220;SDS011;6675;48.128;11.478;2024-03-23T03:52:58;5.88;;;3.20;;
13220;SDS011;6675;48.128;11.478;2024-03-23T03:55:23;5.05;;;3.25;;
13220;SDS011;6675;48.128;11.478;2024-03-23T03:57:49;4.93;;;3.33;;
13220;SDS011;6675;48.128;11.478;2024-03-23T04:00:14;4.35;;;2.85;;
13220;SDS011;6675;48.128;11.478;2024-03-23T04:02:40;4.47;;;3.28;;
13220;SDS011;6675;48.128;11.478;2024-03-23T04:05:06;5.80;;;3.13;;
13220;SDS011;6675;48.128;11.478;2024-03-23T04:07:33;4.93;;;3.00;;
13220;SDS011;6675;48.128;11.478;2024-03-23T04:09:59;5.47;;;2.92;;
13220;SDS011;6675;48.128;11.478;2024-03-23T04:12:24;5.47;;;2.97;;
13220;SDS011;6675;48.128;11.478;2024-03-23T04:14:50;6.15;;;3.30;;
13220;SDS011;6675;48.128;11.478;2024-03-23T04:17:15;5.10;;;3.05;;
13220;SDS011;6675;48.128;11.478;2024-03-23T04:19:41;5.88;;;3.28;;
13220;SDS011;6675;48.128;11.478;2024-03-23T04:22:07;5.13;;;2.65;;
13220;SDS011;6675;48.128;11.478;2024-03-23T04:24:33;6.70;;;3.20;;
13220;SDS011;6675;48.128;11.478;2024-03-23T04:26:58;5.13;;;2.83;;
13220;SDS011;6675;48.128;11.478;2024-03-23T04:29:24;5.05;;;2.92;;
13220;SDS011;6675;48.128;11.478;2024-03-23T04:31:51;4.82;;;3.03;;
13220;SDS011;6675;48.128;11.478;2024-03-23T04:34:17;6.03;;;3.15;;
13220;SDS011;6675;48.128;11.478;2024-03-23T04:36:43;4.18;;;2.67;;
13220;SDS011;6675;48.128;11.478;2024-03-23T04:39:09;5.25;;;2.88;;
13220;SDS011;6675;48.128;11.478;2024-03-23T04:41:35;6.18;;;2.75;;
13220;SDS011;6675;48.128;11.478;2024-03-23T04:44:00;5.25;;;2.88;;
13220;SDS011;6675;48.128;11.478;2024-03-23T04:46:26;4.68;;;2.63;;
13220;SDS011;6675;48.128;11.478;2024-03-23T04:48:52;4.93;;;3.00;;
13220;SDS011;6675;48.128;11.478;2024-03-23T04:51:21;5.75;;;3.22;;
13220;SDS011;6675;48.128;11.478;2024-03-23T04:53:47;7.10;;;4.72;;
13220;SDS011;6675;48.128;11.478;2024-03-23T04:56:13;7.43;;;4.32;;
13220;SDS011;6675;48.128;11.478;2024-03-23T04:58:39;6.20;;;3.53;;
13220;SDS011;6675;48.128;11.478;2024-03-23T05:01:05;6.63;;;3.92;;
13220;SDS011;6675;48.128;11.478;2024-03-23T05:03:30;6.65;;;3.83;;
13220;SDS011;6675;48.128;11.478;2024-03-23T05:05:56;7.50;;;4.15;;
13220;SDS011;6675;48.128;11.478;2024-03-23T05:08:21;6.38;;;3.72;;
13220;SDS011;6675;48.128;11.478;2024-03-23T05:10:47;7.40;;;3.83;;
13220;SDS011;6675;48.128;11.478;2024-03-23T05:13:12;6.63;;;3.80;;
13220;SDS011;6675;48.128;11.478;2024-03-23T05:15:38;6.32;;;3.85;;
13220;SDS011;6675;48.128;11.478;2024-03-23T05:18:04;6.43;;;3.60;;
13220;SDS011;6675;48.128;11.478;2024-03-23T05:20:30;6.07;;;3.47;;
13220;SDS011;6675;48.128;11.478;2024-03-23T05:22:56;5.60;;;3.35;;
13220;SDS011;6675;48.128;11.478;2024-03-23T05:25:22;6.53;;;3.47;;
13220;SDS011;6675;48.128;11.478;2024-03-23T05:27:47;5.65;;;4.10;;
13220;SDS011;6675;48.128;11.478;2024-03-23T05:30:13;6.10;;;3.88;;
13220;SDS011;6675;48.128;11.478;2024-03-23T05:32:39;6.95;;;3.88;;
13220;SDS011;6675;48.128;11.478;2024-03-23T05:35:08;6.05;;;3.80;;
13220;SDS011;6675;48.128;11.478;2024-03-23T05:37:34;8.13;;;3.88;;
13220;SDS011;6675;48.128;11.478;2024-03-23T05:40:00;7.15;;;3.85;;
13220;SDS011;6675;48.128;11.478;2024-03-23T05:42:26;5.68;;;3.58;;
13220;SDS011;6675;48.128;11.478;2024-03-23T05:44:52;4.88;;;3.47;;
13220;SDS011;6675;48.128;11.478;2024-03-23T05:47:17;5.40;;;3.10;;
13220;SDS011;6675;48.128;11.478;2024-03-23T05:49:43;4.55;;;3.17;;
13220;SDS011;6675;48.128;11.478;2024-03-23T05:52:11;6.63;;;3.80;;
13220;SDS011;6675;48.128;11.478;2024-03-23T05:54:37;4.97;;;2.97;;
13220;SDS011;6675;48.128;11.478;2024-03-23T05:57:02;5.57;;;3.50;;
13220;SDS011;6675;48.128;11.478;2024-03-23T05:59:28;6.15;;;3.35;;
13220;SDS011;6675;48.128;11.478;2024-03-23T06:01:54;5.93;;;3.00;;
13220;SDS011;6675;48.128;11.478;2024-03-23T06:04:20;5.50;;;3.22;;
13220;SDS011;6675;48.128;11.478;2024-03-23T06:06:48;6.28;;;3.42;;
13220;SDS011;6675;48.128;11.478;2024-03-23T06:09:14;4.82;;;3.38;;
13220;SDS011;6675;48.128;11.478;2024-03-23T06:11:39;5.18;;;3.33;;
13220;SDS011;6675;48.128;11.478;2024-03-23T06:14:05;4.97;;;3.33;;
13220;SDS011;6675;48.128;11.478;2024-03-23T06:16:31;5.78;;;3.65;;
13220;SDS011;6675;48.128;11.478;2024-03-23T06:18:56;5.70;;;3.15;;
13220;SDS011;6675;48.128;11.478;2024-03-23T06:21:22;5.18;;;3.03;;
13220;SDS011;6675;48.128;11.478;2024-03-23T06:23:50;6.05;;;3.00;;
13220;SDS011;6675;48.128;11.478;2024-03-23T06:26:18;4.93;;;2.65;;
13220;SDS011;6675;48.128;11.478;2024-03-23T06:28:44;4.70;;;3.03;;
13220;SDS011;6675;48.128;11.478;2024-03-23T06:31:09;4.78;;;2.80;;
13220;SDS011;6675;48.128;11.478;2024-03-23T06:33:35;5.22;;;2.65;;
13220;SDS011;6675;48.128;11.478;2024-03-23T06:36:01;4.95;;;2.55;;
13220;SDS011;6675;48.128;11.478;2024-03-23T06:38:28;3.67;;;2.45;;
13220;SDS011;6675;48.128;11.478;2024-03-23T06:40:54;3.97;;;2.38;;
13220;SDS011;6675;48.128;11.478;2024-03-23T06:43:19;3.60;;;2.33;;
13220;SDS011;6675;48.128;11.478;2024-03-23T06:45:51;4.03;;;2.33;;
13220;SDS011;6675;48.128;11.478;2024-03-23T06:48:20;3.50;;;1.90;;
13220;SDS011;6675;48.128;11.478;2024-03-23T06:50:46;3.97;;;2.20;;
13220;SDS011;6675;48.128;11.478;2024-03-23T06:53:13;3.40;;;1.90;;
13220;SDS011;6675;48.128;11.478;2024-03-23T06:55:39;3.42;;;2.15;;
13220;SDS011;6675;48.128;11.478;2024-03-23T06:58:05;4.25;;;2.15;;
13220;SDS011;6675;48.128;11.478;2024-03-23T07:00:31;3.47;;;2.05;;
13220;SDS011;6675;48.128;11.478;2024-03-23T07:03:00;3.55;;;2.05;;
13220;SDS011;6675;48.128;11.478;2024-03-23T07:05:26;4.65;;;2.40;;
13220;SDS011;6675;48.128;11.478;2024-03-23T07:07:52;3.55;;;2.50;;
13220;SDS011;6675;48.128;11.478;2024-03-23T07:10:17;3.85;;;2.50;;
13220;SDS011;6675;48.128;11.478;2024-03-23T07:12:43;4.15;;;2.30;;
13220;SDS011;6675;48.128;11.478;2024-03-23T07:15:09;4.50;;;2.17;;
13220;SDS011;6675;48.128;11.478;2024-03-23T07:17:35;2.58;;;1.90;;
13220;SDS011;6675;48.128;11.478;2024-03-23T07:20:01;5.10;;;2.13;;
13220;SDS011;6675;48.128;11.478;2024-03-23T07:22:29;3.53;;;2.20;;
13220;SDS011;6675;48.128;11.478;2024-03-23T07:24:55;3.08;;;1.92;;
13220;SDS011;6675;48.128;11.478;2024-03-23T07:27:20;3.40;;;2.30;;
13220;SDS011;6675;48.128;11.478;2024-03-23T07:29:46;3.38;;;2.17;;
13220;SDS011;6675;48.128;11.478;2024-03-23T07:32:11;4.20;;;2.33;;
13220;SDS011;6675;48.128;11.478;2024-03-23T07:34:37;4.38;;;1.90;;
13220;SDS011;6675;48.128;11.478;2024-03-23T07:37:03;3.25;;;1.90;;
13220;SDS011;6675;48.128;11.478;2024-03-23T07:39:28;3.05;;;1.80;;
13220;SDS011;6675;48.128;11.478;2024-03-23T07:41:54;3.53;;;1.83;;
13220;SDS011;6675;48.128;11.478;2024-03-23T07:44:19;3.28;;;1.90;;
13220;SDS011;6675;48.128;11.478;2024-03-23T07:46:45;5.35;;;2.10;;
13220;SDS011;6675;48.128;11.478;2024-03-23T07:49:11;4.90;;;2.53;;
13220;SDS011;6675;48.128;11.478;2024-03-23T07:51:36;3.25;;;2.00;;
13220;SDS011;6675;48.128;11.478;2024-03-23T07:54:04;3.35;;;2.15;;
13220;SDS011;6675;48.128;11.478;2024-03-23T07:56:29;4.75;;;2.40;;
13220;SDS011;6675;48.128;11.478;2024-03-23T07:58:55;3.92;;;2.03;;
13220;SDS011;6675;48.128;11.478;2024-03-23T08:01:20;4.30;;;2.13;;
13220;SDS011;6675;48.128;11.478;2024-03-23T08:03:46;3.25;;;1.95;;
13220;SDS011;6675;48.128;11.478;2024-03-23T08:08:59;4.13;;;2.40;;
13220;SDS011;6675;48.128;11.478;2024-03-23T08:11:25;6.40;;;4.00;;
13220;SDS011;6675;48.128;11.478;2024-03-23T08:13:52;7.03;;;4.18;;
13220;SDS011;6675;48.128;11.478;2024-03-23T08:16:17;7.45;;;4.55;;
13220;SDS011;6675;48.128;11.478;2024-03-23T08:18:43;8.43;;;4.32;;
13220;SDS011;6675;48.128;11.478;2024-03-23T08:21:09;7.53;;;3.72;;
13220;SDS011;6675;48.128;11.478;2024-03-23T08:23:34;6.03;;;3.60;;
13220;SDS011;6675;48.128;11.478;2024-03-23T08:28:29;7.57;;;3.75;;
13220;SDS011;6675;48.128;11.478;2024-03-23T08:30:55;7.53;;;3.85;;
13220;SDS011;6675;48.128;11.478;2024-03-23T08:33:22;6.00;;;3.95;;
13220;SDS011;6675;48.128;11.478;2024-03-23T08:36:01;6.40;;;3.45;;
13220;SDS011;6675;48.128;11.478;2024-03-23T08:38:28;6.43;;;3.45;;
13220;SDS011;6675;48.128;11.478;2024-03-23T08:41:07;7.57;;;4.10;;
13220;SDS011;6675;48.128;11.478;2024-03-23T08:43:38;6.95;;;3.80;;
13220;SDS011;6675;48.128;11.478;2024-03-23T08:46:05;8.05;;;4.18;;
13220;SDS011;6675;48.128;11.478;2024-03-23T08:48:35;7.07;;;3.50;;
13220;SDS011;6675;48.128;11.478;2024-03-23T08:51:02;7.20;;;3.25;;
13220;SDS011;6675;48.128;11.478;2024-03-23T08:53:29;6.18;;;2.40;;
13220;SDS011;6675;48.128;11.478;2024-03-23T08:55:56;5.50;;;2.80;;
13220;SDS011;6675;48.128;11.478;2024-03-23T08:58:23;6.13;;;2.80;;
13220;SDS011;6675;48.128;11.478;2024-03-23T09:00:49;4.72;;;2.55;;
13220;SDS011;6675;48.128;11.478;2024-03-23T09:03:16;4.82;;;2.63;;
13220;SDS011;6675;48.128;11.478;2024-03-23T09:05:41;6.18;;;2.92;;
13220;SDS011;6675;48.128;11.478;2024-03-23T09:08:07;5.20;;;2.70;;
13220;SDS011;6675;48.128;11.478;2024-03-23T09:10:39;5.93;;;2.90;;
13220;SDS011;6675;48.128;11.478;2024-03-23T09:13:05;4.65;;;2.67;;
13220;SDS011;6675;48.128;11.478;2024-03-23T09:15:34;5.05;;;3.10;;
13220;SDS011;6675;48.128;11.478;2024-03-23T09:18:01;6.32;;;3.10;;
13220;SDS011;6675;48.128;11.478;2024-03-23T09:20:27;5.72;;;2.95;;
13220;SDS011;6675;48.128;11.478;2024-03-23T09:22:53;5.88;;;3.10;;
13220;SDS011;6675;48.128;11.478;2024-03-23T09:25:19;4.68;;;2.30;;
13220;SDS011;6675;48.128;11.478;2024-03-23T09:27:47;4.70;;;2.70;;
13220;SDS011;6675;48.128;11.478;2024-03-23T09:30:13;4.63;;;2.13;;
13220;SDS011;6675;48.128;11.478;2024-03-23T09:32:39;4.65;;;2.38;;
13220;SDS011;6675;48.128;11.478;2024-03-23T09:35:08;5.50;;;2.45;;
13220;SDS011;6675;48.128;11.478;2024-03-23T09:37:33;4.72;;;2.35;;
13220;SDS011;6675;48.128;11.478;2024-03-23T09:39:59;5.53;;;2.20;;
13220;SDS011;6675;48.128;11.478;2024-03-23T09:42:24;4.38;;;2.15;;
13220;SDS011;6675;48.128;11.478;2024-03-23T09:44:50;3.85;;;2.13;;
13220;SDS011;6675;48.128;11.478;2024-03-23T09:47:17;4.38;;;2.15;;
13220;SDS011;6675;48.128;11.478;2024-03-23T09:49:43;5.28;;;2.47;;
13220;SDS011;6675;48.128;11.478;2024-03-23T09:52:09;4.13;;;1.80;;
13220;SDS011;6675;48.128;11.478;2024-03-23T09:54:35;2.65;;;1.38;;
13220;SDS011;6675;48.128;11.478;2024-03-23T09:57:01;3.03;;;1.60;;
13220;SDS011;6675;48.128;11.478;2024-03-23T09:59:26;3.40;;;1.55;;
13220;SDS011;6675;48.128;11.478;2024-03-23T10:01:53;4.70;;;1.95;;
13220;SDS011;6675;48.128;11.478;2024-03-23T10:04:37;2.50;;;1.38;;
13220;SDS011;6675;48.128;11.478;2024-03-23T10:07:13;3.65;;;1.65;;
13220;SDS011;6675;48.128;11.478;2024-03-23T10:09:40;2.50;;;1.40;;
13220;SDS011;6675;48.128;11.478;2024-03-23T10:12:12;2.63;;;1.40;;
13220;SDS011;6675;48.128;11.478;2024-03-23T10:14:39;2.15;;;1.27;;
13220;SDS011;6675;48.128;11.478;2024-03-23T10:17:16;2.22;;;1.13;;
13220;SDS011;6675;48.128;11.478;2024-03-23T10:22:14;1.33;;;0.63;;
13220;SDS011;6675;48.128;11.478;2024-03-23T10:24:43;1.40;;;0.40;;
13220;SDS011;6675;48.128;11.478;2024-03-23T10:27:09;1.27;;;0.60;;
13220;SDS011;6675;48.128;11.478;2024-03-23T10:29:34;0.85;;;0.40;;
13220;SDS011;6675;48.128;11.478;2024-03-23T10:32:13;0.80;;;0.40;;
13220;SDS011;6675;48.128;11.478;2024-03-23T10:34:42;0.88;;;0.40;;
13220;SDS011;6675;48.128;11.478;2024-03-23T10:37:08;1.23;;;0.50;;
13220;SDS011;6675;48.128;11.478;2024-03-23T10:39:37;1.35;;;0.52;;
13220;SDS011;6675;48.128;11.478;2024-03-23T10:42:10;0.82;;;0.30;;
13220;SDS011;6675;48.128;11.478;2024-03-23T10:44:36;1.15;;;0.60;;
13220;SDS011;6675;48.128;11.478;2024-03-23T10:47:02;1.20;;;0.70;;
13220;SDS011;6675;48.128;11.478;2024-03-23T10:49:29;1.50;;;0.70;;
13220;SDS011;6675;48.128;11.478;2024-03-23T10:52:05;4.65;;;1.35;;
13220;SDS011;6675;48.128;11.478;2024-03-23T10:54:31;3.05;;;1.60;;
13220;SDS011;6675;48.128;11.478;2024-03-23T10:57:04;2.25;;;1.30;;
13220;SDS011;6675;48.128;11.478;2024-03-23T10:59:34;2.35;;;1.10;;
13220;SDS011;6675;48.128;11.478;2024-03-23T11:02:02;2.63;;;1.55;;
13220;SDS011;6675;48.128;11.478;2024-03-23T11:04:29;5.28;;;1.77;;
13220;SDS011;6675;48.128;11.478;2024-03-23T11:06:56;2.88;;;1.75;;
13220;SDS011;6675;48.128;11.478;2024-03-23T11:09:37;2.13;;;1.35;;
13220;SDS011;6675;48.128;11.478;2024-03-23T11:14:48;3.78;;;1.70;;
13220;SDS011;6675;48.128;11.478;2024-03-23T11:17:34;2.22;;;1.20;;
13220;SDS011;6675;48.128;11.478;2024-03-23T11:20:00;2.60;;;1.30;;
13220;SDS011;6675;48.128;11.478;2024-03-23T11:22:39;2.22;;;1.08;;
13220;SDS011;6675;48.128;11.478;2024-03-23T11:27:40;3.15;;;1.27;;
13220;SDS011;6675;48.128;11.478;2024-03-23T11:30:09;1.65;;;0.68;;
13220;SDS011;6675;48.128;11.478;2024-03-23T11:32:39;1.55;;;0.93;;
13220;SDS011;6675;48.128;11.478;2024-03-23T11:35:05;2.38;;;0.80;;
13220;SDS011;6675;48.128;11.478;2024-03-23T11:37:31;2.38;;;0.88;;
13220;SDS011;6675;48.128;11.478;2024-03-23T11:39:57;2.15;;;0.80;;
13220;SDS011;6675;48.128;11.478;2024-03-23T11:42:22;2.80;;;1.23;;
13220;SDS011;6675;48.128;11.478;2024-03-23T11:44:48;2.17;;;0.95;;
13220;SDS011;6675;48.128;11.478;2024-03-23T11:47:14;2.30;;;1.00;;
13220;SDS011;6675;48.128;11.478;2024-03-23T11:49:39;2.22;;;0.80;;
13220;SDS011;6675;48.128;11.478;2024-03-23T11:52:07;2.00;;;1.00;;
13220;SDS011;6675;48.128;11.478;2024-03-23T11:54:33;1.67;;;0.90;;
13220;SDS011;6675;48.128;11.478;2024-03-23T11:56:59;2.13;;;0.77;;
13220;SDS011;6675;48.128;11.478;2024-03-23T11:59:36;2.35;;;1.20;;
13220;SDS011;6675;48.128;11.478;2024-03-23T12:02:06;2.35;;;1.08;;
13220;SDS011;6675;48.128;11.478;2024-03-23T12:04:36;2.15;;;1.10;;
13220;SDS011;6675;48.128;11.478;2024-03-23T12:10:08;2.17;;;1.02;;
13220;SDS011;6675;48.128;11.478;2024-03-23T12:12:33;3.25;;;1.40;;
13220;SDS011;6675;48.128;11.478;2024-03-23T12:15:03;2.03;;;1.02;;
13220;SDS011;6675;48.128;11.478;2024-03-23T12:17:33;2.42;;;1.25;;
13220;SDS011;6675;48.128;11.478;2024-03-23T12:19:59;2.75;;;1.30;;
13220;SDS011;6675;48.128;11.478;2024-03-23T12:22:25;2.38;;;1.13;;
13220;SDS011;6675;48.128;11.478;2024-03-23T12:24:51;1.98;;;1.15;;
13220;SDS011;6675;48.128;11.478;2024-03-23T12:27:17;2.70;;;1.10;;
13220;SDS011;6675;48.128;11.478;2024-03-23T12:29:43;1.98;;;1.20;;
13220;SDS011;6675;48.128;11.478;2024-03-23T12:32:12;2.63;;;1.30;;
13220;SDS011;6675;48.128;11.478;2024-03-23T12:34:39;1.98;;;0.95;;
13220;SDS011;6675;48.128;11.478;2024-03-23T12:37:05;2.70;;;1.25;;
13220;SDS011;6675;48.128;11.478;2024-03-23T12:39:34;2.63;;;1.20;;
13220;SDS011;6675;48.128;11.478;2024-03-23T12:42:00;5.47;;;1.77;;
13220;SDS011;6675;48.128;11.478;2024-03-23T12:44:27;5.30;;;1.80;;
13220;SDS011;6675;48.128;11.478;2024-03-23T12:46:53;4.15;;;1.35;;
13220;SDS011;6675;48.128;11.478;2024-03-23T12:49:19;3.25;;;1.25;;
13220;SDS011;6675;48.128;11.478;2024-03-23T12:51:47;1.90;;;1.17;;
13220;SDS011;6675;48.128;11.478;2024-03-23T12:54:19;2.67;;;1.42;;
13220;SDS011;6675;48.128;11.478;2024-03-23T12:56:45;2.65;;;1.17;;
13220;SDS011;6675;48.128;11.478;2024-03-23T12:59:11;2.55;;;1.42;;
13220;SDS011;6675;48.128;11.478;2024-03-23T13:01:37;2.30;;;1.23;;
13220;SDS011;6675;48.128;11.478;2024-03-23T13:04:03;4.00;;;1.45;;
13220;SDS011;6675;48.128;11.478;2024-03-23T13:06:29;6.10;;;2.55;;
13220;SDS011;6675;48.128;11.478;2024-03-23T13:08:58;3.17;;;1.20;;
13220;SDS011;6675;48.128;11.478;2024-03-23T13:11:28;2.80;;;1.40;;
13220;SDS011;6675;48.128;11.478;2024-03-23T13:13:54;4.72;;;1.50;;
13220;SDS011;6675;48.128;11.478;2024-03-23T13:16:20;2.97;;;0.98;;
13220;SDS011;6675;48.128;11.478;2024-03-23T13:18:45;2.17;;;1.15;;
13220;SDS011;6675;48.128;11.478;2024-03-23T13:21:11;3.20;;;1.13;;
13220;SDS011;6675;48.128;11.478;2024-03-23T13:23:37;3.17;;;1.50;;
13220;SDS011;6675;48.128;11.478;2024-03-23T13:26:04;2.75;;;1.40;;
13220;SDS011;6675;48.128;11.478;2024-03-23T13:28:30;4.53;;;1.23;;
13220;SDS011;6675;48.128;11.478;2024-03-23T13:30:56;2.50;;;1.23;;
13220;SDS011;6675;48.128;11.478;2024-03-23T13:33:29;5.18;;;1.67;;
13220;SDS011;6675;48.128;11.478;2024-03-23T13:35:55;3.95;;;1.63;;
13220;SDS011;6675;48.128;11.478;2024-03-23T13:38:21;3.00;;;1.40;;
13220;SDS011;6675;48.128;11.478;2024-03-23T13:40:51;3.78;;;1.67;;
13220;SDS011;6675;48.128;11.478;2024-03-23T13:43:16;4.07;;;1.65;;
13220;SDS011;6675;48.128;11.478;2024-03-23T13:45:42;2.58;;;1.50;;
13220;SDS011;6675;48.128;11.478;2024-03-23T13:48:07;4.25;;;1.48;;
13220;SDS011;6675;48.128;11.478;2024-03-23T13:50:33;3.72;;;2.05;;
13220;SDS011;6675;48.128;11.478;2024-03-23T13:52:58;4.75;;;1.48;;
13220;SDS011;6675;48.128;11.478;2024-03-23T13:55:24;4.32;;;1.70;;
13220;SDS011;6675;48.128;11.478;2024-03-23T13:57:49;3.63;;;1.83;;
13220;SDS011;6675;48.128;11.478;2024-03-23T14:00:16;4.03;;;1.65;;
13220;SDS011;6675;48.128;11.478;2024-03-23T14:02:43;3.20;;;1.40;;
13220;SDS011;6675;48.128;11.478;2024-03-23T14:05:09;3.50;;;1.90;;
13220;SDS011;6675;48.128;11.478;2024-03-23T14:07:36;4.13;;;1.88;;
13220;SDS011;6675;48.128;11.478;2024-03-23T14:10:04;4.95;;;2.22;;
13220;SDS011;6675;48.128;11.478;2024-03-23T14:12:35;6.60;;;2.50;;
13220;SDS011;6675;48.128;11.478;2024-03-23T14:15:03;4.93;;;2.33;;
13220;SDS011;6675;48.128;11.478;2024-03-23T14:17:31;4.97;;;2.40;;
13220;SDS011;6675;48.128;11.478;2024-03-23T14:19:56;4.35;;;2.30;;
13220;SDS011;6675;48.128;11.478;2024-03-23T14:22:25;4.28;;;1.80;;
13220;SDS011;6675;48.128;11.478;2024-03-23T14:24:54;6.35;;;2.33;;
13220;SDS011;6675;48.128;11.478;2024-03-23T14:27:19;3.95;;;2.22;;
13220;SDS011;6675;48.128;11.478;2024-03-23T14:29:46;4.93;;;2.03;;
13220;SDS011;6675;48.128;11.478;2024-03-23T14:32:12;3.72;;;1.60;;
13220;SDS011;6675;48.128;11.478;2024-03-23T14:34:38;2.95;;;1.63;;
13220;SDS011;6675;48.128;11.478;2024-03-23T14:37:03;4.28;;;2.30;;
13220;SDS011;6675;48.128;11.478;2024-03-23T14:39:30;4.30;;;2.00;;
13220;SDS011;6675;48.128;11.478;2024-03-23T14:41:56;3.90;;;1.70;;
13220;SDS011;6675;48.128;11.478;2024-03-23T14:44:22;4.57;;;1.60;;
13220;SDS011;6675;48.128;11.478;2024-03-23T14:46:48;3.78;;;1.55;;
13220;SDS011;6675;48.128;11.478;2024-03-23T14:49:14;4.45;;;1.55;;
13220;SDS011;6675;48.128;11.478;2024-03-23T14:51:43;2.88;;;1.10;;
13220;SDS011;6675;48.128;11.478;2024-03-23T14:54:08;2.88;;;1.33;;
13220;SDS011;6675;48.128;11.478;2024-03-23T14:56:35;3.75;;;1.88;;
13220;SDS011;6675;48.128;11.478;2024-03-23T14:59:00;2.38;;;1.30;;
13220;SDS011;6675;48.128;11.478;2024-03-23T15:01:26;3.67;;;1.23;;
13220;SDS011;6675;48.128;11.478;2024-03-23T15:03:51;3.60;;;1.20;;
13220;SDS011;6675;48.128;11.478;2024-03-23T15:06:18;3.15;;;1.20;;
13220;SDS011;6675;48.128;11.478;2024-03-23T15:08:44;4.47;;;1.58;;
13220;SDS011;6675;48.128;11.478;2024-03-23T15:11:10;3.33;;;1.38;;
13220;SDS011;6675;48.128;11.478;2024-03-23T15:13:36;5.30;;;2.35;;
13220;SDS011;6675;48.128;11.478;2024-03-23T15:16:03;5.13;;;2.22;;
13220;SDS011;6675;48.128;11.478;2024-03-23T15:18:30;2.65;;;1.58;;
13220;SDS011;6675;48.128;11.478;2024-03-23T15:20:56;3.67;;;1.90;;
13220;SDS011;6675;48.128;11.478;2024-03-23T15:23:23;5.47;;;2.80;;
13220;SDS011;6675;48.128;11.478;2024-03-23T15:25:55;3.63;;;1.58;;
13220;SDS011;6675;48.128;11.478;2024-03-23T15:28:22;3.35;;;1.55;;
13220;SDS011;6675;48.128;11.478;2024-03-23T15:30:48;2.47;;;1.60;;
13220;SDS011;6675;48.128;11.478;2024-03-23T15:33:14;3.55;;;2.05;;
13220;SDS011;6675;48.128;11.478;2024-03-23T15:35:40;4.22;;;1.70;;
13220;SDS011;6675;48.128;11.478;2024-03-23T15:38:05;3.67;;;1.60;;
13220;SDS011;6675;48.128;11.478;2024-03-23T15:40:31;4.50;;;2.05;;
13220;SDS011;6675;48.128;11.478;2024-03-23T15:42:57;6.10;;;1.75;;
13220;SDS011;6675;48.128;11.478;2024-03-23T15:45:22;3.97;;;1.50;;
13220;SDS011;6675;48.128;11.478;2024-03-23T15:47:48;5.22;;;1.67;;
13220;SDS011;6675;48.128;11.478;2024-03-23T15:50:14;4.93;;;1.50;;
13220;SDS011;6675;48.128;11.478;2024-03-23T15:52:39;3.88;;;1.52;;
13220;SDS011;6675;48.128;11.478;2024-03-23T15:55:05;2.65;;;1.40;;